Time;durP1;ratioP1;P1;durP2;ratioP2;P2;SDS_P1;SDS_P2;PMS_P1;PMS_P2;Temp;Humidity;BMP_temperature;BMP_pressure;BME280_temperature;BME280_humidity;BME280_pressure;Samples;Min_cycle;Max_cycle;Signal;HPM_P1;HPM_P2
2024/03/14 00:06:48;;;;;;;73.50;31.70;;;;;;;7.72;100.00;100534.13;681838;1266;139270;-81
2024/03/14 00:21:52;;;;;;;76.70;33.00;;;;;;;7.62;100.00;100537.77;681518;1263;139000;-80
2024/03/14 00:36:56;;;;;;;93.30;38.50;;;;;;;7.59;100.00;100531.23;681879;1265;138895;-80
2024/03/14 00:51:59;;;;;;;105.30;40.80;;;;;;;7.46;100.00;100525.88;681639;1262;138712;-80
2024/03/14 01:07:03;;;;;;;91.10;36.90;;;;;;;7.38;100.00;100526.08;681568;1264;139039;-81
2024/03/14 01:22:08;;;;;;;94.20;38.20;;;;;;;7.43;100.00;100510.59;681980;1263;139791;-80
2024/03/14 01:37:12;;;;;;;90.70;36.30;;;;;;;7.56;100.00;100504.60;681454;1265;139237;-81
2024/03/14 01:52:16;;;;;;;100.20;39.70;;;;;;;7.59;100.00;100498.14;681267;1262;139759;-81
2024/03/14 02:07:23;;;;;;;99.60;40.00;;;;;;;7.59;100.00;100504.79;681167;1264;139617;-81
2024/03/14 02:22:29;;;;;;;101.00;39.00;;;;;;;7.52;100.00;100508.04;681582;1262;140863;-80
2024/03/14 02:37:33;;;;;;;96.80;36.80;;;;;;;7.51;100.00;100509.14;681365;1269;140657;-79
2024/03/14 02:52:37;;;;;;;93.70;36.60;;;;;;;7.51;100.00;100501.48;681681;1265;138787;-80
2024/03/14 03:07:43;;;;;;;97.10;36.60;;;;;;;7.46;100.00;100505.84;681435;1266;139255;-79
2024/03/14 03:38:10;;;;;;;89.70;34.80;;;;;;;7.31;100.00;100487.56;681258;1265;139603;-78
2024/03/14 03:53:14;;;;;;;87.40;33.20;;;;;;;7.23;100.00;100493.57;681455;1262;139487;-79
2024/03/14 04:08:17;;;;;;;82.40;33.70;;;;;;;7.14;100.00;100493.48;681397;1262;139052;-79
2024/03/14 04:23:21;;;;;;;95.80;35.80;;;;;;;7.02;100.00;100488.26;681548;1264;138891;-80
2024/03/14 04:38:24;;;;;;;90.30;34.50;;;;;;;6.91;100.00;100496.98;681555;1267;139026;-80
2024/03/14 04:53:27;;;;;;;130.80;43.50;;;;;;;6.90;100.00;100507.86;681511;1265;139583;-79
2024/03/14 05:08:31;;;;;;;123.10;48.50;;;;;;;6.49;100.00;100507.64;681360;1266;139793;-80
2024/03/14 05:23:34;;;;;;;146.90;48.40;;;;;;;6.46;100.00;100510.96;681489;1262;139189;-82
2024/03/14 05:38:37;;;;;;;247.20;82.20;;;;;;;6.31;100.00;100519.77;681132;1264;139089;-81
2024/03/14 05:53:40;;;;;;;136.70;46.80;;;;;;;6.43;100.00;100523.89;681857;1265;139149;-81
2024/03/14 06:08:44;;;;;;;134.00;46.50;;;;;;;6.41;100.00;100522.75;681471;1265;139961;-81
2024/03/14 06:23:50;;;;;;;155.10;55.20;;;;;;;6.54;100.00;100521.73;681989;1265;139337;-81
2024/03/14 06:38:56;;;;;;;113.30;42.70;;;;;;;6.69;100.00;100525.91;681905;1262;139839;-81
2024/03/14 06:53:59;;;;;;;115.30;42.80;;;;;;;6.85;100.00;100529.71;681814;1265;139568;-79
2024/03/14 07:09:09;;;;;;;103.30;42.40;;;;;;;7.22;100.00;100537.95;681917;1265;139097;-80
2024/03/14 07:24:13;;;;;;;97.40;38.20;;;;;;;7.30;100.00;100537.27;682017;1263;139229;-81
2024/03/14 07:39:16;;;;;;;84.30;36.60;;;;;;;7.24;100.00;100540.92;681818;1260;140620;-80
2024/03/14 07:54:20;;;;;;;84.10;33.90;;;;;;;7.49;100.00;100555.59;681960;1265;138873;-81
2024/03/14 08:09:26;;;;;;;122.10;46.80;;;;;;;7.55;100.00;100568.02;681709;1265;438798;-82
2024/03/14 08:24:40;;;;;;;107.80;41.00;;;;;;;7.79;100.00;100571.23;682054;1265;138993;-79
2024/03/14 08:39:45;;;;;;;113.70;40.70;;;;;;;7.74;100.00;100559.34;681892;1266;140696;-79
2024/03/14 08:54:49;;;;;;;153.50;61.00;;;;;;;8.07;100.00;100564.00;682079;1263;139240;-79
2024/03/14 09:09:53;;;;;;;114.70;45.80;;;;;;;8.77;100.00;100556.04;682099;1265;139372;-79
2024/03/14 09:24:57;;;;;;;74.50;34.60;;;;;;;10.43;100.00;100556.45;681892;1265;139387;-80
2024/03/14 09:40:01;;;;;;;63.40;30.10;;;;;;;12.57;96.16;100551.94;681583;1265;140516;-79
2024/03/14 09:55:09;;;;;;;69.60;35.90;;;;;;;13.79;85.50;100542.63;681826;1265;139038;-79
2024/03/14 10:10:13;;;;;;;67.60;33.10;;;;;;;14.42;78.87;100535.07;681744;1264;140054;-81
2024/03/14 10:25:23;;;;;;;61.90;31.60;;;;;;;15.57;75.70;100534.38;681932;1264;139751;-81
2024/03/14 10:40:28;;;;;;;56.00;29.90;;;;;;;15.87;71.66;100525.82;682046;1265;139711;-82
2024/03/14 10:55:34;;;;;;;57.70;30.30;;;;;;;15.42;69.22;100523.98;681896;1265;139239;-78
2024/03/14 11:10:38;;;;;;;60.40;31.70;;;;;;;14.75;69.52;100518.15;681826;1264;139922;-78
2024/03/14 11:25:48;;;;;;;65.00;34.30;;;;;;;14.19;70.32;100507.77;681847;1262;139957;-80
2024/03/14 11:40:53;;;;;;;66.30;32.20;;;;;;;14.33;70.43;100492.66;682012;1265;139868;-81
2024/03/14 11:55:58;;;;;;;58.80;29.10;;;;;;;14.76;69.58;100478.99;681941;1265;139602;-82
2024/03/14 12:11:13;;;;;;;64.70;33.60;;;;;;;14.90;67.13;100472.17;681943;1264;139447;-81
2024/03/14 12:26:19;;;;;;;61.10;30.60;;;;;;;14.86;68.32;100463.02;681889;1263;139356;-84
2024/03/14 12:41:23;;;;;;;56.30;30.00;;;;;;;15.00;66.85;100456.27;682003;1266;139313;-82
2024/03/14 12:56:28;;;;;;;64.30;32.50;;;;;;;14.68;67.56;100441.88;681976;1265;139244;-82
2024/03/14 13:11:31;;;;;;;56.50;30.20;;;;;;;14.72;67.92;100431.35;681935;1266;139211;-81
2024/03/14 13:26:35;;;;;;;64.40;35.90;;;;;;;14.66;66.36;100429.11;681949;1264;139488;-81
2024/03/14 13:41:58;;;;;;;61.40;29.40;;;;;;;14.46;66.51;100413.74;682067;1264;139140;-81
2024/03/14 13:57:02;;;;;;;52.10;26.70;;;;;;;14.31;67.18;100404.71;682068;1261;139291;-82
2024/03/14 14:12:07;;;;;;;59.10;28.70;;;;;;;14.21;66.48;100395.55;682078;1265;139131;-81
2024/03/14 14:27:24;;;;;;;56.30;28.90;;;;;;;14.37;66.32;100380.92;681921;1260;141333;-80
2024/03/14 14:42:28;;;;;;;46.30;25.40;;;;;;;14.09;66.23;100373.41;682141;1264;139394;-81
2024/03/14 14:57:34;;;;;;;71.60;34.50;;;;;;;13.96;66.62;100363.91;681982;1261;140340;-82
2024/03/14 15:12:38;;;;;;;57.30;29.40;;;;;;;13.92;67.62;100350.64;681899;1266;139413;-81
2024/03/14 15:27:55;;;;;;;56.90;27.70;;;;;;;13.56;68.26;100352.27;681678;1261;139955;-79
2024/03/14 15:43:01;;;;;;;72.40;34.70;;;;;;;13.21;69.10;100346.77;681996;1264;139415;-82
2024/03/14 15:58:05;;;;;;;105.10;46.30;;;;;;;12.65;70.08;100347.70;681684;1264;139628;-81
2024/03/14 16:13:08;;;;;;;162.60;65.60;;;;;;;12.07;72.87;100348.20;681744;1266;139779;-79
2024/03/14 16:28:13;;;;;;;61.10;30.50;;;;;;;11.65;75.86;100344.23;681674;1266;141019;-81
2024/03/14 16:43:16;;;;;;;71.50;32.60;;;;;;;10.98;77.97;100342.50;681785;1262;139783;-78
2024/03/14 16:58:20;;;;;;;220.40;81.90;;;;;;;10.22;80.76;100347.34;681834;1262;139955;-78
2024/03/14 17:13:27;;;;;;;235.50;92.90;;;;;;;9.69;83.51;100354.69;681757;1267;139268;-78
2024/03/14 17:28:30;;;;;;;225.10;103.00;;;;;;;9.49;85.37;100355.64;681813;1265;139730;-77
2024/03/14 17:43:34;;;;;;;204.50;77.30;;;;;;;9.18;87.45;100350.48;681583;1261;140005;-78
2024/03/14 17:58:39;;;;;;;133.40;55.50;;;;;;;8.63;90.97;100350.84;681655;1261;139878;-77
2024/03/14 18:13:43;;;;;;;119.10;46.20;;;;;;;8.31;93.85;100356.23;681531;1265;141170;-78
2024/03/14 18:28:49;;;;;;;99.10;44.20;;;;;;;8.22;94.22;100350.48;681905;1264;139707;-78
2024/03/14 18:43:52;;;;;;;87.40;38.20;;;;;;;8.22;94.46;100349.46;681716;1261;139112;-78
2024/03/14 18:58:57;;;;;;;78.60;34.90;;;;;;;8.35;95.22;100347.89;681631;1266;138700;-78
2024/03/14 19:14:00;;;;;;;78.40;33.70;;;;;;;8.45;94.62;100346.83;681534;1265;139345;-78
2024/03/14 19:29:04;;;;;;;72.40;32.30;;;;;;;8.52;93.41;100336.86;681868;1276;138616;-78
2024/03/14 19:44:10;;;;;;;66.80;27.80;;;;;;;8.56;92.17;100330.46;681686;1265;139041;-78
2024/03/14 19:59:14;;;;;;;62.90;28.20;;;;;;;8.63;91.12;100322.77;681644;1276;139357;-78
2024/03/14 20:14:18;;;;;;;77.60;32.10;;;;;;;8.66;90.14;100325.01;681190;1266;229831;-79
2024/03/14 20:29:23;;;;;;;79.20;34.00;;;;;;;8.75;88.81;100320.64;681502;1263;138990;-79
2024/03/14 20:44:28;;;;;;;76.80;33.70;;;;;;;8.88;88.11;100315.55;681543;1263;139250;-79
2024/03/14 20:59:32;;;;;;;55.40;24.00;;;;;;;9.03;87.12;100314.15;681531;1262;138815;-79
2024/03/14 21:14:36;;;;;;;52.00;22.30;;;;;;;8.96;86.31;100316.17;681625;1264;138884;-79
2024/03/14 21:29:40;;;;;;;54.00;25.60;;;;;;;8.83;85.47;100317.57;681410;1264;139011;-78
2024/03/14 21:44:46;;;;;;;53.40;26.30;;;;;;;8.71;85.47;100318.14;681669;1261;139189;-78
2024/03/14 21:59:49;;;;;;;55.40;28.30;;;;;;;8.55;86.22;100316.93;681677;1266;139249;-78
2024/03/14 22:14:53;;;;;;;67.60;28.20;;;;;;;8.41;87.71;100321.35;681508;1266;140115;-80
2024/03/14 22:29:58;;;;;;;62.00;29.50;;;;;;;8.41;88.14;100311.61;681571;1265;140227;-79
2024/03/14 22:45:02;;;;;;;68.10;27.70;;;;;;;8.40;88.33;100303.31;681590;1264;139673;-78
2024/03/14 23:00:24;;;;;;;62.60;29.50;;;;;;;8.39;89.21;100311.70;681669;1265;139708;-79
2024/03/14 23:15:30;;;;;;;63.50;28.30;;;;;;;8.37;90.61;100308.38;681479;1264;139758;-79
2024/03/14 23:30:36;;;;;;;68.90;30.50;;;;;;;8.22;92.16;100308.36;681681;1265;139656;-79
2024/03/14 23:45:40;;;;;;;62.20;29.80;;;;;;;8.15;93.20;100309.91;681607;1265;138757;-79
